Kings Mills, OH

1:50 AM EST on December 18, 2014 (GMT -0500)
Sinclair Courseview Campus | Change Station
CLOSE
Current Station
Personal Weather Station
Location: Mason, OH
Elevation: 783 ft
Nearby Weather Stations

Elev 783 ft 39.35 °N, 84.27 °W | Updated 2 seconds ago

Overcast
Overcast
26.3 °F
Feels Like 20 °F
N
5.0
Wind Variable Wind from NW
Gusts 5.0 mph

Today
High -- | Low -- °F
--% Chance of Precip.
Yesterday
High -- | Low -- °F
Precip. -- in
7:51 AM 5:15 PM
Waning Crescent, 16% visible
Pressure 30.33 in
Visibility 10.0 miles
Clouds Overcast 1900 ft
Windchill 20 °F
Dew Point 22 °F
Humidity 82%
Rainfall 0.00 in
Snow Depth Not available.
UV 0.0 out of 12
Pollen .10 out of 12
Air Quality Not available.
Flu Activity Not available.
METAR KHAO 180553Z AUTO 32006KT 10SM OVC019 M03/M07 A3030 RMK AO2 SLP270 T10331067 11011 21033 52005

More Conditions Fewer Conditions

Pressure 30.33 in
Visibility 10.0 miles
Clouds Overcast 1900 ft
Windchill 20 °F
Dew Point 22 °F
Humidity 82%
Rainfall 0.00 in
Snow Depth Not available.
UV 0.0 out of 12
Pollen .10 out of 12
Air Quality Not available.
Flu Activity Not available.
METAR KHAO 180553Z AUTO 32006KT 10SM OVC019 M03/M07 A3030 RMK AO2 SLP270 T10331067 11011 21033 52005

More Conditions Fewer Conditions

10-Day Weather Forecast

Almanac

Astronomy

Dec. 18, 2014 Rise Set
Actual Time
Civil Twilight
Nautical Twilight
Astronomical Twilight
Moon
Length of Visible Light
Length of Day
Tomorrow will be .
, % of the Moon is Illuminated

Today's Extremes

State Highs State Lows

Community

WunderPhotos

Upload Photos

1,778,897 photos uploaded!

WunderBlogs® & News

Nearby

Air Quality

  Air Quality AQ Index Pollutant
Not available.

Snow Depth

Station Depth Elevation

Earthquake Activity

City Distance Mag. Time & Date
Minimum magnitude displayed is 2.5.

Coastal Water Temperatures

Place Temperature

Nearby Weather Stations